sensor_id;sensor_type;location;lat;lon;timestamp;P1;durP1;ratioP1;P2;durP2;ratioP2
62679;SDS011;68213;40.528;44.712;2023-04-15T00:00:32;9.32;;;6.10;;
62679;SDS011;68213;40.528;44.712;2023-04-15T00:01:33;7.05;;;5.35;;
62679;SDS011;68213;40.528;44.712;2023-04-15T00:02:36;11.82;;;5.82;;
62679;SDS011;68213;40.528;44.712;2023-04-15T00:03:37;11.43;;;6.53;;
62679;SDS011;68213;40.528;44.712;2023-04-15T00:04:38;11.77;;;7.22;;
62679;SDS011;68213;40.528;44.712;2023-04-15T00:05:39;10.45;;;7.05;;
62679;SDS011;68213;40.528;44.712;2023-04-15T00:06:40;8.23;;;6.25;;
62679;SDS011;68213;40.528;44.712;2023-04-15T00:07:41;9.13;;;6.45;;
62679;SDS011;68213;40.528;44.712;2023-04-15T00:08:41;9.32;;;6.93;;
62679;SDS011;68213;40.528;44.712;2023-04-15T00:09:42;11.60;;;7.28;;
62679;SDS011;68213;40.528;44.712;2023-04-15T00:10:46;12.52;;;6.65;;
62679;SDS011;68213;40.528;44.712;2023-04-15T00:11:49;10.43;;;6.90;;
62679;SDS011;68213;40.528;44.712;2023-04-15T00:12:50;11.25;;;7.55;;
62679;SDS011;68213;40.528;44.712;2023-04-15T00:13:51;13.13;;;7.72;;
62679;SDS011;68213;40.528;44.712;2023-04-15T00:14:52;12.20;;;8.00;;
62679;SDS011;68213;40.528;44.712;2023-04-15T00:15:53;12.98;;;7.53;;
62679;SDS011;68213;40.528;44.712;2023-04-15T00:16:56;14.65;;;7.97;;
62679;SDS011;68213;40.528;44.712;2023-04-15T00:17:57;10.65;;;7.05;;
62679;SDS011;68213;40.528;44.712;2023-04-15T00:18:57;13.70;;;8.10;;
62679;SDS011;68213;40.528;44.712;2023-04-15T00:20:00;14.65;;;8.05;;
62679;SDS011;68213;40.528;44.712;2023-04-15T00:21:03;13.00;;;7.72;;
62679;SDS011;68213;40.528;44.712;2023-04-15T00:22:04;16.23;;;7.45;;
62679;SDS011;68213;40.528;44.712;2023-04-15T00:23:06;16.75;;;8.27;;
62679;SDS011;68213;40.528;44.712;2023-04-15T00:24:07;11.63;;;7.53;;
62679;SDS011;68213;40.528;44.712;2023-04-15T00:25:08;12.75;;;7.22;;
62679;SDS011;68213;40.528;44.712;2023-04-15T00:26:08;15.35;;;8.68;;
62679;SDS011;68213;40.528;44.712;2023-04-15T00:27:09;11.57;;;7.95;;
62679;SDS011;68213;40.528;44.712;2023-04-15T00:28:10;11.63;;;7.68;;
62679;SDS011;68213;40.528;44.712;2023-04-15T00:29:11;15.48;;;8.68;;
62679;SDS011;68213;40.528;44.712;2023-04-15T00:30:12;11.20;;;7.85;;
62679;SDS011;68213;40.528;44.712;2023-04-15T00:31:13;16.98;;;7.82;;
62679;SDS011;68213;40.528;44.712;2023-04-15T00:32:14;10.82;;;6.72;;
62679;SDS011;68213;40.528;44.712;2023-04-15T00:33:15;14.25;;;7.63;;
62679;SDS011;68213;40.528;44.712;2023-04-15T00:34:16;13.65;;;8.02;;
62679;SDS011;68213;40.528;44.712;2023-04-15T00:35:17;9.75;;;7.22;;
62679;SDS011;68213;40.528;44.712;2023-04-15T00:36:18;12.20;;;7.45;;
62679;SDS011;68213;40.528;44.712;2023-04-15T00:37:18;13.07;;;8.30;;
62679;SDS011;68213;40.528;44.712;2023-04-15T00:38:19;15.73;;;8.27;;
62679;SDS011;68213;40.528;44.712;2023-04-15T00:39:21;10.77;;;7.40;;
62679;SDS011;68213;40.528;44.712;2023-04-15T00:40:22;13.90;;;7.85;;
62679;SDS011;68213;40.528;44.712;2023-04-15T00:41:24;13.50;;;8.32;;
62679;SDS011;68213;40.528;44.712;2023-04-15T00:42:27;12.23;;;7.28;;
62679;SDS011;68213;40.528;44.712;2023-04-15T00:43:29;15.40;;;8.50;;
62679;SDS011;68213;40.528;44.712;2023-04-15T00:44:30;12.23;;;7.75;;
62679;SDS011;68213;40.528;44.712;2023-04-15T00:45:32;12.70;;;8.32;;
62679;SDS011;68213;40.528;44.712;2023-04-15T00:46:36;13.13;;;7.95;;
62679;SDS011;68213;40.528;44.712;2023-04-15T00:47:39;12.18;;;6.93;;
62679;SDS011;68213;40.528;44.712;2023-04-15T00:48:42;13.73;;;7.47;;
62679;SDS011;68213;40.528;44.712;2023-04-15T00:49:43;12.00;;;7.53;;
62679;SDS011;68213;40.528;44.712;2023-04-15T00:50:44;10.88;;;8.07;;
62679;SDS011;68213;40.528;44.712;2023-04-15T00:51:44;11.23;;;8.18;;
62679;SDS011;68213;40.528;44.712;2023-04-15T00:52:45;10.45;;;7.53;;
62679;SDS011;68213;40.528;44.712;2023-04-15T00:53:46;11.45;;;7.63;;
62679;SDS011;68213;40.528;44.712;2023-04-15T00:54:49;11.27;;;7.90;;
62679;SDS011;68213;40.528;44.712;2023-04-15T00:55:51;10.77;;;7.15;;
62679;SDS011;68213;40.528;44.712;2023-04-15T00:56:53;10.45;;;6.35;;
62679;SDS011;68213;40.528;44.712;2023-04-15T00:57:53;10.73;;;7.05;;
62679;SDS011;68213;40.528;44.712;2023-04-15T00:58:56;9.50;;;6.55;;
62679;SDS011;68213;40.528;44.712;2023-04-15T00:59:58;11.23;;;7.28;;
62679;SDS011;68213;40.528;44.712;2023-04-15T01:01:00;13.18;;;7.05;;
62679;SDS011;68213;40.528;44.712;2023-04-15T01:02:01;12.02;;;7.35;;
62679;SDS011;68213;40.528;44.712;2023-04-15T01:03:01;10.13;;;6.85;;
62679;SDS011;68213;40.528;44.712;2023-04-15T01:04:03;10.18;;;6.50;;
62679;SDS011;68213;40.528;44.712;2023-04-15T01:05:05;11.05;;;6.32;;
62679;SDS011;68213;40.528;44.712;2023-04-15T01:06:06;14.85;;;7.38;;
62679;SDS011;68213;40.528;44.712;2023-04-15T01:07:07;11.02;;;7.10;;
62679;SDS011;68213;40.528;44.712;2023-04-15T01:08:08;11.80;;;6.63;;
62679;SDS011;68213;40.528;44.712;2023-04-15T01:09:09;9.40;;;6.60;;
62679;SDS011;68213;40.528;44.712;2023-04-15T01:10:11;10.40;;;5.70;;
62679;SDS011;68213;40.528;44.712;2023-04-15T01:11:12;11.35;;;7.43;;
62679;SDS011;68213;40.528;44.712;2023-04-15T01:12:13;9.32;;;6.53;;
62679;SDS011;68213;40.528;44.712;2023-04-15T01:13:16;11.60;;;6.45;;
62679;SDS011;68213;40.528;44.712;2023-04-15T01:14:17;9.50;;;6.38;;
62679;SDS011;68213;40.528;44.712;2023-04-15T01:15:17;11.50;;;6.65;;
62679;SDS011;68213;40.528;44.712;2023-04-15T01:16:19;12.15;;;6.70;;
62679;SDS011;68213;40.528;44.712;2023-04-15T01:18:35;11.00;;;7.25;;
62679;SDS011;68213;40.528;44.712;2023-04-15T01:19:37;9.80;;;7.03;;
62679;SDS011;68213;40.528;44.712;2023-04-15T01:20:40;9.05;;;6.60;;
62679;SDS011;68213;40.528;44.712;2023-04-15T01:21:41;9.05;;;6.68;;
62679;SDS011;68213;40.528;44.712;2023-04-15T01:22:42;8.75;;;6.38;;
62679;SDS011;68213;40.528;44.712;2023-04-15T01:23:45;9.68;;;6.57;;
62679;SDS011;68213;40.528;44.712;2023-04-15T01:24:53;11.38;;;6.55;;
62679;SDS011;68213;40.528;44.712;2023-04-15T01:26:01;8.05;;;5.88;;
62679;SDS011;68213;40.528;44.712;2023-04-15T01:27:03;13.02;;;6.13;;
62679;SDS011;68213;40.528;44.712;2023-04-15T01:28:04;10.02;;;5.95;;
62679;SDS011;68213;40.528;44.712;2023-04-15T01:29:05;7.10;;;5.35;;
62679;SDS011;68213;40.528;44.712;2023-04-15T01:30:06;8.80;;;5.88;;
62679;SDS011;68213;40.528;44.712;2023-04-15T01:31:08;9.25;;;5.95;;
62679;SDS011;68213;40.528;44.712;2023-04-15T01:32:11;8.88;;;5.72;;
62679;SDS011;68213;40.528;44.712;2023-04-15T01:33:30;7.40;;;5.38;;
62679;SDS011;68213;40.528;44.712;2023-04-15T01:34:50;7.32;;;4.82;;
62679;SDS011;68213;40.528;44.712;2023-04-15T01:36:11;8.32;;;5.18;;
62679;SDS011;68213;40.528;44.712;2023-04-15T01:37:12;7.35;;;5.38;;
62679;SDS011;68213;40.528;44.712;2023-04-15T01:38:12;6.45;;;4.78;;
62679;SDS011;68213;40.528;44.712;2023-04-15T01:39:13;10.25;;;5.97;;
62679;SDS011;68213;40.528;44.712;2023-04-15T01:40:14;8.00;;;5.75;;
62679;SDS011;68213;40.528;44.712;2023-04-15T01:41:15;10.82;;;6.10;;
62679;SDS011;68213;40.528;44.712;2023-04-15T01:42:16;7.75;;;5.50;;
62679;SDS011;68213;40.528;44.712;2023-04-15T01:43:17;10.77;;;5.40;;
62679;SDS011;68213;40.528;44.712;2023-04-15T01:44:18;7.03;;;5.30;;
62679;SDS011;68213;40.528;44.712;2023-04-15T01:45:19;6.97;;;5.15;;
62679;SDS011;68213;40.528;44.712;2023-04-15T01:46:19;8.93;;;6.00;;
62679;SDS011;68213;40.528;44.712;2023-04-15T01:47:20;9.73;;;6.22;;
62679;SDS011;68213;40.528;44.712;2023-04-15T01:48:21;10.60;;;6.10;;
62679;SDS011;68213;40.528;44.712;2023-04-15T01:49:22;9.38;;;6.15;;
62679;SDS011;68213;40.528;44.712;2023-04-15T01:50:23;11.93;;;6.50;;
62679;SDS011;68213;40.528;44.712;2023-04-15T01:51:24;10.85;;;6.00;;
62679;SDS011;68213;40.528;44.712;2023-04-15T01:52:24;9.88;;;5.93;;
62679;SDS011;68213;40.528;44.712;2023-04-15T01:53:25;10.55;;;6.75;;
62679;SDS011;68213;40.528;44.712;2023-04-15T01:54:26;11.00;;;6.72;;
62679;SDS011;68213;40.528;44.712;2023-04-15T01:55:27;9.95;;;6.20;;
62679;SDS011;68213;40.528;44.712;2023-04-15T01:56:27;12.82;;;6.57;;
62679;SDS011;68213;40.528;44.712;2023-04-15T01:57:28;9.50;;;6.25;;
62679;SDS011;68213;40.528;44.712;2023-04-15T01:58:29;9.55;;;6.05;;
62679;SDS011;68213;40.528;44.712;2023-04-15T01:59:32;10.73;;;5.45;;
62679;SDS011;68213;40.528;44.712;2023-04-15T02:00:33;9.23;;;5.45;;
62679;SDS011;68213;40.528;44.712;2023-04-15T02:01:34;9.70;;;5.72;;
62679;SDS011;68213;40.528;44.712;2023-04-15T02:02:35;8.45;;;6.30;;
62679;SDS011;68213;40.528;44.712;2023-04-15T02:03:36;8.80;;;6.00;;
62679;SDS011;68213;40.528;44.712;2023-04-15T02:04:38;7.60;;;5.45;;
62679;SDS011;68213;40.528;44.712;2023-04-15T02:05:40;9.43;;;6.43;;
62679;SDS011;68213;40.528;44.712;2023-04-15T02:06:42;7.45;;;5.57;;
62679;SDS011;68213;40.528;44.712;2023-04-15T02:07:43;7.97;;;5.43;;
62679;SDS011;68213;40.528;44.712;2023-04-15T02:08:44;8.85;;;5.65;;
62679;SDS011;68213;40.528;44.712;2023-04-15T02:09:44;7.15;;;4.93;;
62679;SDS011;68213;40.528;44.712;2023-04-15T02:10:45;8.75;;;6.00;;
62679;SDS011;68213;40.528;44.712;2023-04-15T02:11:46;8.38;;;4.93;;
62679;SDS011;68213;40.528;44.712;2023-04-15T02:12:47;8.25;;;4.90;;
62679;SDS011;68213;40.528;44.712;2023-04-15T02:13:48;8.48;;;5.65;;
62679;SDS011;68213;40.528;44.712;2023-04-15T02:14:48;10.32;;;5.07;;
62679;SDS011;68213;40.528;44.712;2023-04-15T02:15:49;6.65;;;5.28;;
62679;SDS011;68213;40.528;44.712;2023-04-15T02:16:51;9.38;;;5.50;;
62679;SDS011;68213;40.528;44.712;2023-04-15T02:17:52;8.68;;;5.30;;
62679;SDS011;68213;40.528;44.712;2023-04-15T02:18:54;7.68;;;5.20;;
62679;SDS011;68213;40.528;44.712;2023-04-15T02:19:55;7.53;;;5.20;;
62679;SDS011;68213;40.528;44.712;2023-04-15T02:20:56;7.25;;;5.97;;
62679;SDS011;68213;40.528;44.712;2023-04-15T02:21:57;7.35;;;5.15;;
62679;SDS011;68213;40.528;44.712;2023-04-15T02:23:00;7.07;;;4.75;;
62679;SDS011;68213;40.528;44.712;2023-04-15T02:24:01;8.10;;;5.88;;
62679;SDS011;68213;40.528;44.712;2023-04-15T02:25:03;9.13;;;5.20;;
62679;SDS011;68213;40.528;44.712;2023-04-15T02:26:04;7.30;;;5.05;;
62679;SDS011;68213;40.528;44.712;2023-04-15T02:27:05;7.55;;;4.55;;
62679;SDS011;68213;40.528;44.712;2023-04-15T02:28:06;6.45;;;5.10;;
62679;SDS011;68213;40.528;44.712;2023-04-15T02:29:07;7.65;;;5.55;;
62679;SDS011;68213;40.528;44.712;2023-04-15T02:30:07;9.77;;;5.85;;
62679;SDS011;68213;40.528;44.712;2023-04-15T02:31:08;9.73;;;5.78;;
62679;SDS011;68213;40.528;44.712;2023-04-15T02:32:09;7.35;;;5.20;;
62679;SDS011;68213;40.528;44.712;2023-04-15T02:33:11;6.75;;;5.32;;
62679;SDS011;68213;40.528;44.712;2023-04-15T02:34:11;9.25;;;5.10;;
62679;SDS011;68213;40.528;44.712;2023-04-15T02:35:13;7.82;;;5.40;;
62679;SDS011;68213;40.528;44.712;2023-04-15T02:36:14;6.63;;;4.35;;
62679;SDS011;68213;40.528;44.712;2023-04-15T02:37:15;6.35;;;4.22;;
62679;SDS011;68213;40.528;44.712;2023-04-15T02:38:16;5.32;;;4.03;;
62679;SDS011;68213;40.528;44.712;2023-04-15T02:39:17;6.63;;;5.03;;
62679;SDS011;68213;40.528;44.712;2023-04-15T02:40:18;7.78;;;4.72;;
62679;SDS011;68213;40.528;44.712;2023-04-15T02:41:18;6.15;;;4.75;;
62679;SDS011;68213;40.528;44.712;2023-04-15T02:42:19;4.88;;;3.70;;
62679;SDS011;68213;40.528;44.712;2023-04-15T02:43:20;5.60;;;3.80;;
62679;SDS011;68213;40.528;44.712;2023-04-15T02:44:21;5.03;;;3.67;;
62679;SDS011;68213;40.528;44.712;2023-04-15T02:45:26;6.30;;;4.47;;
62679;SDS011;68213;40.528;44.712;2023-04-15T02:46:27;6.63;;;3.95;;
62679;SDS011;68213;40.528;44.712;2023-04-15T02:47:28;5.95;;;4.57;;
62679;SDS011;68213;40.528;44.712;2023-04-15T02:48:28;6.72;;;4.38;;
62679;SDS011;68213;40.528;44.712;2023-04-15T02:49:29;6.65;;;4.72;;
62679;SDS011;68213;40.528;44.712;2023-04-15T02:50:30;5.38;;;3.67;;
62679;SDS011;68213;40.528;44.712;2023-04-15T02:51:31;6.28;;;4.47;;
62679;SDS011;68213;40.528;44.712;2023-04-15T02:52:32;7.75;;;5.13;;
62679;SDS011;68213;40.528;44.712;2023-04-15T02:53:32;7.28;;;4.78;;
62679;SDS011;68213;40.528;44.712;2023-04-15T02:54:33;6.03;;;4.65;;
62679;SDS011;68213;40.528;44.712;2023-04-15T02:55:34;6.07;;;4.35;;
62679;SDS011;68213;40.528;44.712;2023-04-15T02:56:34;7.28;;;4.82;;
62679;SDS011;68213;40.528;44.712;2023-04-15T02:57:35;6.03;;;3.60;;
62679;SDS011;68213;40.528;44.712;2023-04-15T02:58:38;5.93;;;3.95;;
62679;SDS011;68213;40.528;44.712;2023-04-15T02:59:39;6.82;;;4.03;;
62679;SDS011;68213;40.528;44.712;2023-04-15T03:00:39;6.00;;;4.57;;
62679;SDS011;68213;40.528;44.712;2023-04-15T03:01:40;5.38;;;4.32;;
62679;SDS011;68213;40.528;44.712;2023-04-15T03:02:41;17.05;;;5.00;;
62679;SDS011;68213;40.528;44.712;2023-04-15T03:03:43;5.63;;;3.90;;
62679;SDS011;68213;40.528;44.712;2023-04-15T03:04:43;7.30;;;4.13;;
62679;SDS011;68213;40.528;44.712;2023-04-15T03:05:44;7.00;;;3.95;;
62679;SDS011;68213;40.528;44.712;2023-04-15T03:06:45;7.07;;;4.15;;
62679;SDS011;68213;40.528;44.712;2023-04-15T03:07:46;6.03;;;4.65;;
62679;SDS011;68213;40.528;44.712;2023-04-15T03:08:47;6.15;;;4.05;;
62679;SDS011;68213;40.528;44.712;2023-04-15T03:09:48;5.90;;;4.05;;
62679;SDS011;68213;40.528;44.712;2023-04-15T03:10:48;6.85;;;4.25;;
62679;SDS011;68213;40.528;44.712;2023-04-15T03:11:51;6.13;;;4.10;;
62679;SDS011;68213;40.528;44.712;2023-04-15T03:12:56;8.45;;;4.70;;
62679;SDS011;68213;40.528;44.712;2023-04-15T03:13:57;8.88;;;4.95;;
62679;SDS011;68213;40.528;44.712;2023-04-15T03:14:58;5.57;;;4.90;;
62679;SDS011;68213;40.528;44.712;2023-04-15T03:16:01;5.55;;;4.13;;
62679;SDS011;68213;40.528;44.712;2023-04-15T03:17:01;7.28;;;4.20;;
62679;SDS011;68213;40.528;44.712;2023-04-15T03:18:02;6.32;;;4.03;;
62679;SDS011;68213;40.528;44.712;2023-04-15T03:19:03;6.50;;;4.72;;
62679;SDS011;68213;40.528;44.712;2023-04-15T03:20:04;5.88;;;3.72;;
62679;SDS011;68213;40.528;44.712;2023-04-15T03:21:06;7.88;;;4.10;;
62679;SDS011;68213;40.528;44.712;2023-04-15T03:22:07;7.13;;;4.03;;
62679;SDS011;68213;40.528;44.712;2023-04-15T03:23:08;4.43;;;3.42;;
62679;SDS011;68213;40.528;44.712;2023-04-15T03:24:08;5.35;;;4.10;;
62679;SDS011;68213;40.528;44.712;2023-04-15T03:25:09;5.45;;;4.07;;
62679;SDS011;68213;40.528;44.712;2023-04-15T03:26:10;5.05;;;3.72;;
62679;SDS011;68213;40.528;44.712;2023-04-15T03:27:24;5.47;;;4.18;;
62679;SDS011;68213;40.528;44.712;2023-04-15T03:28:25;4.82;;;3.55;;
62679;SDS011;68213;40.528;44.712;2023-04-15T03:29:26;5.70;;;4.35;;
62679;SDS011;68213;40.528;44.712;2023-04-15T03:30:26;5.13;;;3.75;;
62679;SDS011;68213;40.528;44.712;2023-04-15T03:31:27;7.50;;;4.15;;
62679;SDS011;68213;40.528;44.712;2023-04-15T03:32:28;4.90;;;3.65;;
62679;SDS011;68213;40.528;44.712;2023-04-15T03:33:29;6.03;;;4.05;;
62679;SDS011;68213;40.528;44.712;2023-04-15T03:34:29;5.55;;;3.88;;
62679;SDS011;68213;40.528;44.712;2023-04-15T03:35:30;5.60;;;3.88;;
62679;SDS011;68213;40.528;44.712;2023-04-15T03:36:31;5.95;;;3.92;;
62679;SDS011;68213;40.528;44.712;2023-04-15T03:37:32;5.82;;;4.15;;
62679;SDS011;68213;40.528;44.712;2023-04-15T03:38:33;7.75;;;3.70;;
62679;SDS011;68213;40.528;44.712;2023-04-15T03:39:34;5.93;;;3.75;;
62679;SDS011;68213;40.528;44.712;2023-04-15T03:40:34;4.63;;;4.00;;
62679;SDS011;68213;40.528;44.712;2023-04-15T03:41:35;6.50;;;3.60;;
62679;SDS011;68213;40.528;44.712;2023-04-15T03:42:36;6.55;;;3.22;;
62679;SDS011;68213;40.528;44.712;2023-04-15T03:43:37;5.07;;;3.17;;
62679;SDS011;68213;40.528;44.712;2023-04-15T03:44:37;4.60;;;3.42;;
62679;SDS011;68213;40.528;44.712;2023-04-15T03:45:38;3.92;;;3.25;;
62679;SDS011;68213;40.528;44.712;2023-04-15T03:46:39;4.75;;;3.72;;
62679;SDS011;68213;40.528;44.712;2023-04-15T03:47:40;4.50;;;3.10;;
62679;SDS011;68213;40.528;44.712;2023-04-15T03:48:41;5.20;;;3.67;;
62679;SDS011;68213;40.528;44.712;2023-04-15T03:49:41;5.03;;;3.70;;
62679;SDS011;68213;40.528;44.712;2023-04-15T03:50:42;6.10;;;3.35;;
62679;SDS011;68213;40.528;44.712;2023-04-15T03:51:43;5.72;;;3.10;;
62679;SDS011;68213;40.528;44.712;2023-04-15T03:52:43;3.75;;;2.50;;
62679;SDS011;68213;40.528;44.712;2023-04-15T03:53:45;4.75;;;3.30;;
62679;SDS011;68213;40.528;44.712;2023-04-15T03:54:45;3.33;;;3.03;;
62679;SDS011;68213;40.528;44.712;2023-04-15T03:55:46;5.65;;;3.50;;
62679;SDS011;68213;40.528;44.712;2023-04-15T03:56:49;3.53;;;2.90;;
62679;SDS011;68213;40.528;44.712;2023-04-15T03:57:50;4.20;;;3.20;;
62679;SDS011;68213;40.528;44.712;2023-04-15T03:58:50;7.30;;;3.38;;
62679;SDS011;68213;40.528;44.712;2023-04-15T03:59:51;11.65;;;4.05;;
62679;SDS011;68213;40.528;44.712;2023-04-15T04:00:52;4.80;;;3.58;;
62679;SDS011;68213;40.528;44.712;2023-04-15T04:01:54;4.40;;;3.17;;
62679;SDS011;68213;40.528;44.712;2023-04-15T04:02:54;3.20;;;2.90;;
62679;SDS011;68213;40.528;44.712;2023-04-15T04:03:55;6.18;;;3.75;;
62679;SDS011;68213;40.528;44.712;2023-04-15T04:04:56;6.03;;;3.70;;
62679;SDS011;68213;40.528;44.712;2023-04-15T04:05:56;3.35;;;2.72;;
62679;SDS011;68213;40.528;44.712;2023-04-15T04:06:57;3.75;;;3.05;;
62679;SDS011;68213;40.528;44.712;2023-04-15T04:07:59;3.85;;;3.38;;
62679;SDS011;68213;40.528;44.712;2023-04-15T04:09:04;3.13;;;2.78;;
62679;SDS011;68213;40.528;44.712;2023-04-15T04:10:05;4.65;;;3.25;;
62679;SDS011;68213;40.528;44.712;2023-04-15T04:11:07;5.43;;;3.58;;
62679;SDS011;68213;40.528;44.712;2023-04-15T04:12:07;4.40;;;3.30;;
62679;SDS011;68213;40.528;44.712;2023-04-15T04:13:08;3.22;;;2.40;;
62679;SDS011;68213;40.528;44.712;2023-04-15T04:14:09;3.90;;;2.80;;
62679;SDS011;68213;40.528;44.712;2023-04-15T04:15:10;4.55;;;3.25;;
62679;SDS011;68213;40.528;44.712;2023-04-15T04:16:11;6.25;;;3.67;;
62679;SDS011;68213;40.528;44.712;2023-04-15T04:17:12;2.97;;;2.47;;
62679;SDS011;68213;40.528;44.712;2023-04-15T04:18:12;3.28;;;2.67;;
62679;SDS011;68213;40.528;44.712;2023-04-15T04:19:13;3.72;;;2.60;;
62679;SDS011;68213;40.528;44.712;2023-04-15T04:20:14;3.53;;;2.83;;
62679;SDS011;68213;40.528;44.712;2023-04-15T04:21:15;4.57;;;3.28;;
62679;SDS011;68213;40.528;44.712;2023-04-15T04:22:16;3.25;;;2.95;;
62679;SDS011;68213;40.528;44.712;2023-04-15T04:23:17;3.40;;;2.72;;
62679;SDS011;68213;40.528;44.712;2023-04-15T04:24:18;3.70;;;3.22;;
62679;SDS011;68213;40.528;44.712;2023-04-15T04:25:21;3.50;;;2.78;;
62679;SDS011;68213;40.528;44.712;2023-04-15T04:26:22;4.40;;;2.63;;
62679;SDS011;68213;40.528;44.712;2023-04-15T04:27:22;4.38;;;3.53;;
62679;SDS011;68213;40.528;44.712;2023-04-15T04:28:23;5.95;;;3.45;;
62679;SDS011;68213;40.528;44.712;2023-04-15T04:29:24;4.97;;;3.40;;
62679;SDS011;68213;40.528;44.712;2023-04-15T04:30:24;3.60;;;2.63;;
62679;SDS011;68213;40.528;44.712;2023-04-15T04:31:25;4.13;;;2.53;;
62679;SDS011;68213;40.528;44.712;2023-04-15T04:32:26;4.80;;;3.88;;
62679;SDS011;68213;40.528;44.712;2023-04-15T04:33:27;5.53;;;3.90;;
62679;SDS011;68213;40.528;44.712;2023-04-15T04:34:28;4.75;;;3.17;;
62679;SDS011;68213;40.528;44.712;2023-04-15T04:35:28;4.85;;;3.15;;
62679;SDS011;68213;40.528;44.712;2023-04-15T04:36:29;6.55;;;3.63;;
62679;SDS011;68213;40.528;44.712;2023-04-15T04:37:31;4.65;;;3.35;;
62679;SDS011;68213;40.528;44.712;2023-04-15T04:38:32;3.80;;;3.20;;
62679;SDS011;68213;40.528;44.712;2023-04-15T04:39:32;3.05;;;2.53;;
62679;SDS011;68213;40.528;44.712;2023-04-15T04:40:35;4.45;;;3.22;;
62679;SDS011;68213;40.528;44.712;2023-04-15T04:41:38;4.57;;;2.42;;
62679;SDS011;68213;40.528;44.712;2023-04-15T04:42:39;4.90;;;3.42;;
62679;SDS011;68213;40.528;44.712;2023-04-15T04:43:40;3.33;;;2.75;;
62679;SDS011;68213;40.528;44.712;2023-04-15T04:44:41;4.07;;;2.72;;
62679;SDS011;68213;40.528;44.712;2023-04-15T04:45:41;3.38;;;2.83;;
62679;SDS011;68213;40.528;44.712;2023-04-15T04:46:46;4.03;;;3.13;;
62679;SDS011;68213;40.528;44.712;2023-04-15T04:47:47;4.68;;;3.53;;
62679;SDS011;68213;40.528;44.712;2023-04-15T04:48:47;3.50;;;2.78;;
62679;SDS011;68213;40.528;44.712;2023-04-15T04:49:48;4.22;;;2.70;;
62679;SDS011;68213;40.528;44.712;2023-04-15T04:50:49;4.75;;;4.05;;
62679;SDS011;68213;40.528;44.712;2023-04-15T04:51:50;3.50;;;2.55;;
62679;SDS011;68213;40.528;44.712;2023-04-15T04:52:51;5.18;;;3.63;;
62679;SDS011;68213;40.528;44.712;2023-04-15T04:53:52;4.85;;;3.15;;
62679;SDS011;68213;40.528;44.712;2023-04-15T04:54:53;3.90;;;2.60;;
62679;SDS011;68213;40.528;44.712;2023-04-15T04:55:54;4.45;;;3.08;;
62679;SDS011;68213;40.528;44.712;2023-04-15T04:56:54;6.32;;;4.00;;
62679;SDS011;68213;40.528;44.712;2023-04-15T04:57:56;5.40;;;3.42;;
62679;SDS011;68213;40.528;44.712;2023-04-15T04:58:57;3.83;;;2.90;;
62679;SDS011;68213;40.528;44.712;2023-04-15T04:59:58;4.47;;;3.13;;
62679;SDS011;68213;40.528;44.712;2023-04-15T05:00:59;5.30;;;3.83;;
62679;SDS011;68213;40.528;44.712;2023-04-15T05:02:00;4.55;;;3.70;;
62679;SDS011;68213;40.528;44.712;2023-04-15T05:03:03;5.25;;;4.00;;
62679;SDS011;68213;40.528;44.712;2023-04-15T05:04:04;6.80;;;3.65;;
62679;SDS011;68213;40.528;44.712;2023-04-15T05:05:06;4.20;;;3.67;;
62679;SDS011;68213;40.528;44.712;2023-04-15T05:06:07;6.70;;;3.92;;
62679;SDS011;68213;40.528;44.712;2023-04-15T05:07:08;4.38;;;3.88;;
62679;SDS011;68213;40.528;44.712;2023-04-15T05:08:10;4.22;;;2.90;;
62679;SDS011;68213;40.528;44.712;2023-04-15T05:09:11;4.13;;;3.22;;
62679;SDS011;68213;40.528;44.712;2023-04-15T05:10:11;5.32;;;3.08;;
62679;SDS011;68213;40.528;44.712;2023-04-15T05:11:13;8.35;;;4.70;;
62679;SDS011;68213;40.528;44.712;2023-04-15T05:12:14;5.45;;;3.72;;
62679;SDS011;68213;40.528;44.712;2023-04-15T05:13:15;5.13;;;3.67;;
62679;SDS011;68213;40.528;44.712;2023-04-15T05:14:16;3.92;;;3.45;;
62679;SDS011;68213;40.528;44.712;2023-04-15T05:15:16;4.72;;;4.22;;
62679;SDS011;68213;40.528;44.712;2023-04-15T05:16:17;5.32;;;3.78;;
62679;SDS011;68213;40.528;44.712;2023-04-15T05:17:19;6.43;;;4.30;;
62679;SDS011;68213;40.528;44.712;2023-04-15T05:18:19;5.95;;;4.60;;
62679;SDS011;68213;40.528;44.712;2023-04-15T05:19:20;5.93;;;4.00;;
62679;SDS011;68213;40.528;44.712;2023-04-15T05:20:21;5.45;;;3.92;;
62679;SDS011;68213;40.528;44.712;2023-04-15T05:21:22;4.35;;;3.72;;
62679;SDS011;68213;40.528;44.712;2023-04-15T05:22:22;5.88;;;3.03;;
62679;SDS011;68213;40.528;44.712;2023-04-15T05:23:24;5.20;;;3.58;;
62679;SDS011;68213;40.528;44.712;2023-04-15T05:24:24;4.22;;;2.95;;
62679;SDS011;68213;40.528;44.712;2023-04-15T05:25:25;6.47;;;3.78;;
62679;SDS011;68213;40.528;44.712;2023-04-15T05:26:30;4.28;;;3.50;;
62679;SDS011;68213;40.528;44.712;2023-04-15T05:27:31;5.25;;;3.25;;
62679;SDS011;68213;40.528;44.712;2023-04-15T05:28:32;5.93;;;3.88;;
62679;SDS011;68213;40.528;44.712;2023-04-15T05:29:33;8.68;;;4.25;;
62679;SDS011;68213;40.528;44.712;2023-04-15T05:30:34;5.10;;;3.60;;
62679;SDS011;68213;40.528;44.712;2023-04-15T05:31:35;4.25;;;3.60;;
62679;SDS011;68213;40.528;44.712;2023-04-15T05:32:36;5.45;;;3.25;;
62679;SDS011;68213;40.528;44.712;2023-04-15T05:33:36;4.03;;;2.65;;
62679;SDS011;68213;40.528;44.712;2023-04-15T05:34:42;4.50;;;3.60;;
62679;SDS011;68213;40.528;44.712;2023-04-15T05:35:43;7.05;;;3.08;;
62679;SDS011;68213;40.528;44.712;2023-04-15T05:36:44;4.82;;;4.05;;
62679;SDS011;68213;40.528;44.712;2023-04-15T05:37:45;3.42;;;3.05;;
62679;SDS011;68213;40.528;44.712;2023-04-15T05:38:48;4.07;;;3.08;;
62679;SDS011;68213;40.528;44.712;2023-04-15T05:39:49;5.75;;;3.67;;
62679;SDS011;68213;40.528;44.712;2023-04-15T05:40:50;5.13;;;4.07;;
62679;SDS011;68213;40.528;44.712;2023-04-15T05:41:50;5.07;;;3.83;;
62679;SDS011;68213;40.528;44.712;2023-04-15T05:42:51;7.20;;;4.45;;
62679;SDS011;68213;40.528;44.712;2023-04-15T05:43:52;4.15;;;3.58;;
62679;SDS011;68213;40.528;44.712;2023-04-15T05:44:52;5.75;;;4.30;;
62679;SDS011;68213;40.528;44.712;2023-04-15T05:45:53;4.70;;;3.97;;
62679;SDS011;68213;40.528;44.712;2023-04-15T05:46:54;4.82;;;3.28;;
62679;SDS011;68213;40.528;44.712;2023-04-15T05:47:55;4.88;;;3.65;;
62679;SDS011;68213;40.528;44.712;2023-04-15T05:48:55;4.63;;;3.72;;
62679;SDS011;68213;40.528;44.712;2023-04-15T05:49:56;3.85;;;3.13;;
62679;SDS011;68213;40.528;44.712;2023-04-15T05:50:58;4.68;;;3.70;;
62679;SDS011;68213;40.528;44.712;2023-04-15T05:51:59;4.88;;;3.53;;
62679;SDS011;68213;40.528;44.712;2023-04-15T05:53:00;4.38;;;3.17;;
62679;SDS011;68213;40.528;44.712;2023-04-15T05:54:01;5.13;;;3.75;;
62679;SDS011;68213;40.528;44.712;2023-04-15T05:55:01;4.80;;;3.50;;
62679;SDS011;68213;40.528;44.712;2023-04-15T05:56:02;5.80;;;3.85;;
62679;SDS011;68213;40.528;44.712;2023-04-15T05:57:03;4.43;;;3.83;;
62679;SDS011;68213;40.528;44.712;2023-04-15T05:58:04;4.95;;;4.22;;
62679;SDS011;68213;40.528;44.712;2023-04-15T05:59:05;3.95;;;3.08;;
62679;SDS011;68213;40.528;44.712;2023-04-15T06:00:06;5.07;;;3.65;;
62679;SDS011;68213;40.528;44.712;2023-04-15T06:01:07;5.45;;;3.17;;
62679;SDS011;68213;40.528;44.712;2023-04-15T06:02:08;4.82;;;3.67;;
62679;SDS011;68213;40.528;44.712;2023-04-15T06:03:09;6.32;;;4.00;;
62679;SDS011;68213;40.528;44.712;2023-04-15T06:04:10;5.47;;;3.60;;